createdAt,value
2018-05-12T00:00:07.112Z,14.17
2018-05-12T00:00:38.317Z,14.16
2018-05-12T00:01:09.527Z,14.16
2018-05-12T00:01:40.732Z,14.15
2018-05-12T00:02:11.953Z,14.14
2018-05-12T00:02:43.210Z,14.12
2018-05-12T00:03:14.425Z,14.11
2018-05-12T00:03:46.351Z,14.10
2018-05-12T00:04:17.608Z,14.11
2018-05-12T00:04:48.820Z,14.12
2018-05-12T00:05:20.032Z,14.11
2018-05-12T00:05:51.342Z,14.12
2018-05-12T00:06:22.502Z,14.11
2018-05-12T00:06:53.712Z,14.12
2018-05-12T00:07:24.926Z,14.12
2018-05-12T00:07:56.147Z,14.10
2018-05-12T00:08:27.385Z,14.10
2018-05-12T00:08:58.625Z,14.09
2018-05-12T00:09:29.847Z,14.09
2018-05-12T00:10:01.061Z,14.07
2018-05-12T00:10:32.272Z,14.08
2018-05-12T00:11:03.481Z,14.06
2018-05-12T00:11:34.698Z,14.07
2018-05-12T00:12:05.922Z,14.05
2018-05-12T00:12:37.180Z,14.05
2018-05-12T00:13:08.371Z,14.06
2018-05-12T00:13:39.585Z,14.07
2018-05-12T00:14:10.792Z,14.07
2018-05-12T00:14:42.001Z,14.08
2018-05-12T00:15:13.222Z,14.09
2018-05-12T00:15:44.454Z,14.08
2018-05-12T00:16:15.684Z,14.09
2018-05-12T00:16:46.930Z,14.09
2018-05-12T00:17:18.136Z,14.01
2018-05-12T00:17:49.401Z,14.07
2018-05-12T00:18:20.633Z,14.08
2018-05-12T00:18:51.900Z,14.08
2018-05-12T00:19:23.114Z,14.07
2018-05-12T00:19:54.314Z,14.05
2018-05-12T00:20:25.506Z,14.05
2018-05-12T00:20:56.744Z,14.04
2018-05-12T00:21:28.021Z,14.04
2018-05-12T00:21:59.229Z,14.04
2018-05-12T00:22:30.438Z,14.02
2018-05-12T00:23:01.684Z,13.99
2018-05-12T00:23:32.897Z,14.00
2018-05-12T00:24:04.178Z,14.00
2018-05-12T00:24:35.393Z,13.99
2018-05-12T00:25:06.605Z,14.01
2018-05-12T00:25:37.874Z,13.99
2018-05-12T00:26:09.425Z,13.97
2018-05-12T00:26:40.642Z,13.93
2018-05-12T00:27:11.858Z,13.91
2018-05-12T00:27:43.066Z,13.87
2018-05-12T00:28:14.319Z,13.84
2018-05-12T00:28:45.511Z,13.81
2018-05-12T00:29:16.763Z,13.77
2018-05-12T00:29:47.978Z,13.73
2018-05-12T00:30:19.225Z,13.69
2018-05-12T00:30:50.429Z,13.66
2018-05-12T00:31:21.641Z,13.63
2018-05-12T00:31:52.870Z,13.62
2018-05-12T00:32:24.392Z,13.60
2018-05-12T00:32:56.386Z,13.59
2018-05-12T00:33:27.594Z,13.59
2018-05-12T00:33:58.857Z,13.59
2018-05-12T00:34:30.107Z,13.58
2018-05-12T00:35:01.329Z,13.58
2018-05-12T00:35:32.547Z,13.58
2018-05-12T00:36:03.757Z,13.56
2018-05-12T00:36:34.983Z,13.59
2018-05-12T00:37:06.174Z,13.59
2018-05-12T00:37:37.387Z,13.59
2018-05-12T00:38:08.601Z,13.57
2018-05-12T00:38:39.870Z,13.58
2018-05-12T00:39:11.068Z,13.56
2018-05-12T00:39:42.271Z,13.55
2018-05-12T00:40:13.522Z,13.55
2018-05-12T00:40:44.735Z,13.54
2018-05-12T00:41:15.947Z,13.54
2018-05-12T00:41:47.166Z,13.53
2018-05-12T00:42:18.406Z,13.54
2018-05-12T00:42:49.629Z,13.56
2018-05-12T00:43:20.837Z,13.57
2018-05-12T00:43:52.090Z,13.58
2018-05-12T00:44:23.310Z,13.20
2018-05-12T00:44:54.525Z,13.55
2018-05-12T00:45:25.755Z,13.53
2018-05-12T00:45:57.001Z,13.50
2018-05-12T00:46:28.226Z,13.48
2018-05-12T00:46:59.486Z,13.46
2018-05-12T00:47:30.695Z,13.44
2018-05-12T00:48:01.916Z,13.42
2018-05-12T00:48:33.129Z,13.39
2018-05-12T00:49:04.974Z,13.37
2018-05-12T00:49:36.201Z,13.36
2018-05-12T00:50:07.419Z,13.36
2018-05-12T00:50:38.641Z,13.37
2018-05-12T00:51:09.846Z,13.38
2018-05-12T00:51:41.091Z,13.43
2018-05-12T00:52:12.296Z,13.45
2018-05-12T00:52:43.570Z,13.46
2018-05-12T00:53:14.781Z,13.46
2018-05-12T00:53:46.004Z,13.47
2018-05-12T00:54:17.289Z,13.47
2018-05-12T00:54:48.501Z,13.46
2018-05-12T00:55:19.724Z,13.46
2018-05-12T00:55:50.935Z,13.46
2018-05-12T00:56:22.163Z,13.45
2018-05-12T00:56:53.393Z,13.44
2018-05-12T00:57:24.614Z,13.46
2018-05-12T00:57:55.829Z,13.44
2018-05-12T00:58:27.036Z,13.45
2018-05-12T00:58:58.257Z,13.44
2018-05-12T00:59:29.508Z,13.41
2018-05-12T01:00:00.733Z,13.37
2018-05-12T01:00:32.062Z,13.34
2018-05-12T01:01:03.280Z,13.31
2018-05-12T01:01:34.529Z,13.27
2018-05-12T01:02:05.741Z,13.25
2018-05-12T01:02:36.947Z,13.22
2018-05-12T01:03:08.178Z,13.21
2018-05-12T01:03:39.400Z,13.18
2018-05-12T01:04:10.625Z,13.15
2018-05-12T01:04:41.839Z,13.15
2018-05-12T01:05:13.093Z,13.15
2018-05-12T01:05:44.301Z,13.15
2018-05-12T01:06:15.529Z,13.14
2018-05-12T01:06:46.765Z,13.17
2018-05-12T01:07:17.976Z,13.16
2018-05-12T01:07:49.212Z,13.16
2018-05-12T01:08:20.446Z,13.16
2018-05-12T01:08:51.701Z,13.16
2018-05-12T01:09:22.939Z,13.18
2018-05-12T01:09:54.139Z,13.18
2018-05-12T01:10:25.387Z,13.18
2018-05-12T01:10:56.605Z,13.17
2018-05-12T01:11:27.865Z,13.17
2018-05-12T01:11:59.077Z,13.17
2018-05-12T01:12:30.287Z,13.16
2018-05-12T01:13:01.499Z,13.15
2018-05-12T01:13:32.814Z,13.14
2018-05-12T01:14:03.981Z,13.12
2018-05-12T01:14:35.272Z,13.10
2018-05-12T01:15:06.443Z,13.08
2018-05-12T01:15:37.653Z,13.06
2018-05-12T01:16:08.865Z,13.04
2018-05-12T01:16:40.138Z,13.01
2018-05-12T01:17:11.364Z,12.98
2018-05-12T01:17:42.577Z,12.99
2018-05-12T01:18:13.841Z,12.98
2018-05-12T01:18:45.049Z,12.98
2018-05-12T01:19:16.340Z,12.98
2018-05-12T01:19:47.564Z,12.96
2018-05-12T01:20:18.781Z,12.96
2018-05-12T01:20:50.004Z,12.95
2018-05-12T01:21:21.204Z,12.96
2018-05-12T01:21:52.416Z,12.96
2018-05-12T01:22:23.621Z,12.96
2018-05-12T01:22:54.830Z,12.96
2018-05-12T01:23:26.096Z,12.97
2018-05-12T01:23:57.305Z,12.99
2018-05-12T01:24:28.662Z,12.98
2018-05-12T01:24:59.879Z,12.97
2018-05-12T01:25:31.095Z,12.96
2018-05-12T01:26:02.296Z,12.96
2018-05-12T01:26:33.562Z,12.97
2018-05-12T01:27:04.780Z,12.97
2018-05-12T01:27:35.976Z,12.98
2018-05-12T01:28:07.176Z,12.99
2018-05-12T01:28:38.390Z,12.98
2018-05-12T01:29:09.621Z,12.99
2018-05-12T01:29:40.828Z,13.01
2018-05-12T01:30:12.037Z,13.03
2018-05-12T01:30:43.241Z,13.05
2018-05-12T01:31:14.454Z,13.06
2018-05-12T01:31:45.737Z,13.06
2018-05-12T01:32:16.935Z,13.07
2018-05-12T01:32:48.130Z,13.07
2018-05-12T01:33:19.343Z,13.06
2018-05-12T01:33:50.558Z,13.05
2018-05-12T01:34:21.760Z,13.03
2018-05-12T01:34:52.969Z,13.00
2018-05-12T01:35:24.172Z,12.99
2018-05-12T01:35:55.393Z,12.99
2018-05-12T01:36:26.596Z,13.00
2018-05-12T01:36:57.857Z,12.99
2018-05-12T01:37:29.077Z,12.98
2018-05-12T01:38:00.285Z,12.98
2018-05-12T01:38:31.535Z,13.01
2018-05-12T01:39:03.441Z,13.03
2018-05-12T01:39:34.710Z,13.04
2018-05-12T01:40:05.933Z,13.07
2018-05-12T01:40:37.142Z,13.08
2018-05-12T01:41:08.397Z,13.09
2018-05-12T01:41:39.622Z,13.09
2018-05-12T01:42:10.835Z,13.10
2018-05-12T01:42:42.572Z,13.12
2018-05-12T01:43:14.565Z,13.14
2018-05-12T01:43:45.786Z,13.20
2018-05-12T01:44:16.996Z,13.20
2018-05-12T01:44:48.205Z,13.25
2018-05-12T01:45:19.415Z,13.28
2018-05-12T01:45:50.673Z,13.32
2018-05-12T01:46:21.906Z,13.35
2018-05-12T01:46:53.103Z,13.38
2018-05-12T01:47:24.354Z,13.42
2018-05-12T01:47:55.574Z,13.44
2018-05-12T01:48:26.795Z,13.44
2018-05-12T01:48:58.042Z,13.42
2018-05-12T01:49:29.263Z,13.39
2018-05-12T01:50:00.477Z,13.37
2018-05-12T01:50:31.718Z,13.36
2018-05-12T01:51:02.976Z,13.36
2018-05-12T01:51:34.197Z,13.37
2018-05-12T01:52:05.410Z,13.38
2018-05-12T01:52:36.615Z,13.39
2018-05-12T01:53:07.856Z,13.38
2018-05-12T01:53:39.077Z,13.38
2018-05-12T01:54:11.103Z,13.38
2018-05-12T01:54:42.310Z,13.37
2018-05-12T01:55:13.521Z,13.36
2018-05-12T01:55:44.744Z,13.33
2018-05-12T01:56:16.066Z,13.34
2018-05-12T01:56:47.268Z,13.34
2018-05-12T01:57:18.477Z,13.34
2018-05-12T01:57:49.681Z,13.34
2018-05-12T01:58:20.903Z,13.34
2018-05-12T01:58:52.169Z,13.34
2018-05-12T01:59:23.377Z,13.30
2018-05-12T01:59:54.589Z,13.30
2018-05-12T02:00:25.798Z,13.31
2018-05-12T02:00:57.051Z,13.32
2018-05-12T02:01:28.310Z,13.33
2018-05-12T02:01:59.581Z,13.33
2018-05-12T02:02:30.796Z,13.31
2018-05-12T02:03:02.006Z,13.30
2018-05-12T02:03:33.248Z,13.28
2018-05-12T02:04:04.505Z,13.26
2018-05-12T02:04:35.720Z,13.24
2018-05-12T02:05:06.943Z,13.24
2018-05-12T02:05:38.150Z,13.22
2018-05-12T02:06:09.360Z,13.20
2018-05-12T02:06:40.581Z,13.16
2018-05-12T02:07:11.845Z,13.13
2018-05-12T02:07:43.053Z,13.09
2018-05-12T02:08:14.264Z,13.06
2018-05-12T02:08:45.478Z,13.04
2018-05-12T02:09:16.698Z,13.03
2018-05-12T02:09:47.891Z,13.03
2018-05-12T02:10:19.103Z,13.03
2018-05-12T02:10:50.328Z,13.03
2018-05-12T02:11:21.540Z,13.04
2018-05-12T02:11:52.778Z,13.04
2018-05-12T02:12:24.022Z,13.04
2018-05-12T02:12:55.270Z,13.04
2018-05-12T02:13:26.497Z,13.05
2018-05-12T02:13:58.327Z,13.07
2018-05-12T02:14:29.667Z,13.06
2018-05-12T02:15:00.888Z,13.07
2018-05-12T02:15:32.096Z,13.08
2018-05-12T02:16:03.311Z,13.09
2018-05-12T02:16:34.525Z,13.11
2018-05-12T02:17:05.788Z,13.10
2018-05-12T02:17:37.056Z,13.10
2018-05-12T02:18:08.261Z,13.11
2018-05-12T02:18:39.469Z,13.12
2018-05-12T02:19:10.678Z,13.11
2018-05-12T02:19:41.887Z,13.10
2018-05-12T02:20:13.114Z,13.09
2018-05-12T02:20:44.322Z,13.08
2018-05-12T02:21:15.582Z,13.07
2018-05-12T02:21:46.823Z,13.07
2018-05-12T02:22:18.035Z,13.04
2018-05-12T02:22:49.294Z,13.05
2018-05-12T02:23:20.508Z,13.04
2018-05-12T02:23:51.705Z,13.02
2018-05-12T02:24:22.918Z,13.00
2018-05-12T02:24:54.129Z,12.98
2018-05-12T02:25:25.341Z,12.97
2018-05-12T02:25:56.598Z,12.98
2018-05-12T02:26:27.805Z,12.96
2018-05-12T02:26:59.029Z,12.95
2018-05-12T02:27:30.246Z,12.93
2018-05-12T02:28:01.453Z,12.92
2018-05-12T02:28:32.684Z,12.91
2018-05-12T02:29:03.898Z,12.90
2018-05-12T02:29:35.136Z,12.91
2018-05-12T02:30:06.385Z,12.89
2018-05-12T02:30:37.611Z,12.88
2018-05-12T02:31:08.820Z,12.87
2018-05-12T02:31:40.096Z,12.85
2018-05-12T02:32:11.306Z,12.86
2018-05-12T02:32:42.525Z,12.87
2018-05-12T02:33:13.740Z,12.87
2018-05-12T02:33:44.966Z,12.87
2018-05-12T02:34:16.213Z,12.87
2018-05-12T02:34:47.425Z,12.87
2018-05-12T02:35:18.687Z,12.88
2018-05-12T02:35:49.913Z,12.89
2018-05-12T02:36:21.121Z,12.90
2018-05-12T02:36:52.355Z,12.91
2018-05-12T02:37:23.604Z,12.91
2018-05-12T02:37:54.833Z,12.91
2018-05-12T02:38:26.045Z,12.93
2018-05-12T02:38:57.263Z,12.94
2018-05-12T02:39:28.481Z,12.96
2018-05-12T02:39:59.741Z,12.94
2018-05-12T02:40:30.950Z,12.93
2018-05-12T02:41:02.161Z,12.92
2018-05-12T02:41:33.388Z,12.92
2018-05-12T02:42:04.602Z,12.91
2018-05-12T02:42:35.827Z,12.90
2018-05-12T02:43:07.054Z,12.89
2018-05-12T02:43:38.265Z,12.89
2018-05-12T02:44:09.497Z,12.88
2018-05-12T02:44:40.709Z,12.88
2018-05-12T02:45:11.962Z,12.87
2018-05-12T02:45:43.204Z,12.87
2018-05-12T02:46:14.458Z,12.89
2018-05-12T02:46:45.714Z,12.91
2018-05-12T02:47:16.921Z,12.92
2018-05-12T02:47:48.130Z,12.93
2018-05-12T02:48:19.337Z,12.94
2018-05-12T02:48:50.546Z,12.95
2018-05-12T02:49:21.793Z,12.97
2018-05-12T02:49:53.026Z,12.98
2018-05-12T02:50:24.274Z,12.99
2018-05-12T02:50:55.532Z,13.00
2018-05-12T02:51:26.744Z,12.99
2018-05-12T02:51:57.983Z,12.98
2018-05-12T02:52:29.188Z,12.97
2018-05-12T02:53:01.889Z,12.96
2018-05-12T02:53:33.107Z,12.95
2018-05-12T02:54:04.349Z,12.94
2018-05-12T02:54:35.604Z,12.92
2018-05-12T02:55:06.837Z,12.89
2018-05-12T02:55:38.047Z,12.89
2018-05-12T02:56:09.261Z,12.90
2018-05-12T02:56:40.546Z,12.89
2018-05-12T02:57:11.762Z,12.89
2018-05-12T02:57:42.954Z,12.88
2018-05-12T02:58:14.235Z,12.87
2018-05-12T02:58:45.448Z,12.85
2018-05-12T02:59:16.726Z,12.86
2018-05-12T02:59:47.929Z,12.87
2018-05-12T03:00:19.144Z,12.90
2018-05-12T03:00:50.384Z,12.92
2018-05-12T03:01:21.605Z,12.93
2018-05-12T03:01:52.827Z,12.93
2018-05-12T03:02:24.041Z,12.94
2018-05-12T03:02:55.250Z,12.95
2018-05-12T03:03:26.517Z,12.96
2018-05-12T03:03:57.778Z,12.98
2018-05-12T03:04:29.005Z,12.99
2018-05-12T03:05:00.220Z,12.98
2018-05-12T03:05:31.433Z,12.99
2018-05-12T03:06:02.678Z,13.00
2018-05-12T03:06:33.894Z,13.02
2018-05-12T03:07:05.115Z,13.03
2018-05-12T03:07:36.325Z,13.06
2018-05-12T03:08:07.553Z,13.08
2018-05-12T03:08:38.827Z,13.07
2018-05-12T03:09:10.033Z,13.09
2018-05-12T03:09:41.264Z,13.09
2018-05-12T03:10:12.533Z,13.11
2018-05-12T03:10:43.741Z,13.15
2018-05-12T03:11:14.949Z,13.17
2018-05-12T03:11:46.179Z,13.20
2018-05-12T03:12:17.384Z,13.21
2018-05-12T03:12:48.593Z,13.23
2018-05-12T03:13:19.814Z,13.24
2018-05-12T03:13:51.061Z,13.25
2018-05-12T03:14:22.285Z,13.25
2018-05-12T03:14:53.509Z,13.25
2018-05-12T03:15:24.741Z,13.25
2018-05-12T03:15:55.953Z,13.24
2018-05-12T03:16:27.173Z,13.26
2018-05-12T03:16:58.390Z,13.29
2018-05-12T03:17:29.605Z,13.32
2018-05-12T03:18:01.263Z,13.33
2018-05-12T03:18:32.505Z,13.35
2018-05-12T03:19:03.714Z,13.39
2018-05-12T03:19:34.942Z,13.44
2018-05-12T03:20:06.182Z,13.47
2018-05-12T03:20:37.385Z,13.52
2018-05-12T03:21:08.598Z,13.56
2018-05-12T03:21:39.809Z,13.58
2018-05-12T03:22:11.015Z,13.58
2018-05-12T03:22:42.948Z,13.60
2018-05-12T03:23:14.156Z,13.61
2018-05-12T03:23:45.372Z,13.65
2018-05-12T03:24:16.693Z,13.71
2018-05-12T03:24:47.883Z,13.77
2018-05-12T03:25:19.089Z,13.80
2018-05-12T03:25:50.311Z,13.80
2018-05-12T03:26:21.525Z,13.87
2018-05-12T03:26:52.774Z,13.97
2018-05-12T03:27:23.981Z,14.07
2018-05-12T03:27:55.188Z,14.16
2018-05-12T03:28:26.436Z,14.21
2018-05-12T03:28:57.652Z,14.29
2018-05-12T03:29:28.953Z,14.36
2018-05-12T03:30:00.208Z,14.44
2018-05-12T03:30:31.446Z,14.52
2018-05-12T03:31:02.729Z,14.63
2018-05-12T03:31:33.953Z,14.75
2018-05-12T03:32:05.164Z,14.83
2018-05-12T03:32:36.379Z,14.91
2018-05-12T03:33:07.589Z,15.02
2018-05-12T03:33:38.805Z,15.13
2018-05-12T03:34:10.018Z,15.22
2018-05-12T03:34:41.220Z,15.33
2018-05-12T03:35:12.464Z,15.40
2018-05-12T03:35:43.677Z,15.49
2018-05-12T03:36:14.911Z,15.61
2018-05-12T03:36:46.134Z,15.72
2018-05-12T03:37:17.345Z,15.74
2018-05-12T03:37:48.567Z,15.94
2018-05-12T03:38:19.781Z,16.06
2018-05-12T03:38:50.984Z,16.15
2018-05-12T03:39:22.203Z,16.25
2018-05-12T03:39:53.470Z,16.32
2018-05-12T03:40:24.715Z,16.41
2018-05-12T03:40:55.943Z,16.49
2018-05-12T03:41:27.161Z,16.59
2018-05-12T03:41:58.420Z,16.68
2018-05-12T03:42:29.666Z,16.74
2018-05-12T03:43:00.896Z,16.77
2018-05-12T03:43:32.114Z,16.78
2018-05-12T03:44:03.333Z,16.83
2018-05-12T03:44:34.569Z,16.92
2018-05-12T03:45:05.785Z,16.99
2018-05-12T03:45:36.996Z,17.08
2018-05-12T03:46:08.215Z,17.15
2018-05-12T03:46:39.434Z,17.28
2018-05-12T03:47:10.712Z,17.29
2018-05-12T03:47:41.925Z,17.48
2018-05-12T03:48:13.137Z,17.60
2018-05-12T03:48:44.341Z,17.71
2018-05-12T03:49:15.549Z,17.83
2018-05-12T03:49:46.802Z,17.95
2018-05-12T03:50:18.020Z,18.08
2018-05-12T03:50:49.265Z,18.23
2018-05-12T03:51:20.479Z,18.35
2018-05-12T03:51:51.697Z,18.44
2018-05-12T03:52:22.957Z,18.54
2018-05-12T03:52:54.175Z,18.62
2018-05-12T03:53:25.390Z,18.73
2018-05-12T03:53:56.593Z,18.80
2018-05-12T03:54:27.815Z,18.91
2018-05-12T03:54:59.064Z,18.99
2018-05-12T03:55:30.317Z,19.05
2018-05-12T03:56:01.527Z,19.18
2018-05-12T03:56:32.750Z,19.28
2018-05-12T03:57:03.962Z,19.39
2018-05-12T03:57:35.179Z,19.49
2018-05-12T03:58:06.396Z,19.57
2018-05-12T03:58:37.617Z,19.65
2018-05-12T03:59:08.834Z,19.72
2018-05-12T03:59:40.098Z,19.83
2018-05-12T04:00:11.300Z,19.89
2018-05-12T04:00:42.518Z,19.93
2018-05-12T04:01:13.842Z,20.00
2018-05-12T04:01:45.074Z,19.99
2018-05-12T04:02:16.280Z,19.95
2018-05-12T04:02:47.492Z,20.03
2018-05-12T04:03:18.713Z,20.12
2018-05-12T04:03:49.922Z,20.22
2018-05-12T04:04:21.126Z,20.31
2018-05-12T04:04:52.353Z,20.47
2018-05-12T04:05:23.637Z,20.62
2018-05-12T04:05:54.853Z,20.75
2018-05-12T04:06:26.113Z,20.90
2018-05-12T04:06:57.321Z,21.03
2018-05-12T04:07:28.562Z,21.10
2018-05-12T04:07:59.792Z,21.15
2018-05-12T04:08:31.084Z,21.12
2018-05-12T04:09:02.248Z,21.06
2018-05-12T04:09:33.457Z,20.97
2018-05-12T04:10:04.718Z,20.87
2018-05-12T04:10:35.987Z,20.78
2018-05-12T04:11:07.223Z,20.68
2018-05-12T04:11:38.473Z,20.57
2018-05-12T04:12:09.701Z,20.38
2018-05-12T04:12:40.952Z,20.18
2018-05-12T04:13:12.201Z,19.84
2018-05-12T04:13:43.777Z,19.62
2018-05-12T04:14:14.993Z,19.40
2018-05-12T04:14:46.214Z,19.19
2018-05-12T04:15:17.532Z,18.97
2018-05-12T04:15:48.737Z,18.72
2018-05-12T04:16:19.940Z,18.52
2018-05-12T04:16:51.181Z,18.45
2018-05-12T04:17:22.406Z,18.44
2018-05-12T04:17:53.609Z,18.42
2018-05-12T04:18:24.828Z,18.40
2018-05-12T04:18:56.043Z,18.31
2018-05-12T04:19:27.257Z,18.16
2018-05-12T04:19:58.471Z,17.98
2018-05-12T04:20:29.718Z,17.88
2018-05-12T04:21:01.016Z,17.87
2018-05-12T04:21:32.238Z,17.83
2018-05-12T04:22:03.470Z,17.85
2018-05-12T04:22:34.738Z,17.91
2018-05-12T04:23:05.957Z,17.99
2018-05-12T04:23:37.165Z,18.11
2018-05-12T04:24:08.408Z,18.30
2018-05-12T04:24:39.627Z,18.41
2018-05-12T04:25:10.840Z,18.40
2018-05-12T04:25:42.044Z,18.41
2018-05-12T04:26:13.328Z,18.40
2018-05-12T04:26:44.545Z,18.36
2018-05-12T04:27:15.755Z,18.30
2018-05-12T04:27:47.010Z,18.24
2018-05-12T04:28:18.238Z,18.18
2018-05-12T04:28:49.460Z,18.18
2018-05-12T04:29:20.699Z,18.21
2018-05-12T04:29:51.909Z,18.27
2018-05-12T04:30:23.146Z,18.35
2018-05-12T04:30:54.372Z,18.45
2018-05-12T04:31:25.581Z,18.60
2018-05-12T04:31:56.816Z,18.81
2018-05-12T04:32:28.071Z,19.07
2018-05-12T04:32:59.307Z,19.35
2018-05-12T04:33:30.518Z,19.67
2018-05-12T04:34:01.729Z,19.98
2018-05-12T04:34:33.907Z,20.28
2018-05-12T04:35:05.239Z,20.58
2018-05-12T04:35:36.448Z,20.86
2018-05-12T04:36:07.670Z,21.14
2018-05-12T04:36:38.895Z,21.43
2018-05-12T04:37:10.113Z,21.69
2018-05-12T04:37:41.401Z,21.87
2018-05-12T04:38:12.604Z,21.99
2018-05-12T04:38:43.835Z,22.05
2018-05-12T04:39:15.043Z,21.99
2018-05-12T04:39:46.250Z,21.99
2018-05-12T04:40:17.526Z,22.04
2018-05-12T04:40:48.750Z,21.93
2018-05-12T04:41:19.969Z,22.10
2018-05-12T04:41:51.186Z,22.19
2018-05-12T04:42:22.418Z,21.83
2018-05-12T04:42:53.750Z,21.70
2018-05-12T04:43:25.039Z,21.38
2018-05-12T04:43:56.293Z,20.93
2018-05-12T04:44:27.505Z,20.74
2018-05-12T04:44:58.721Z,20.53
2018-05-12T04:45:29.951Z,20.24
2018-05-12T04:46:01.165Z,19.98
2018-05-12T04:46:32.377Z,19.81
2018-05-12T04:47:03.584Z,19.79
2018-05-12T04:47:34.789Z,19.64
2018-05-12T04:48:06.052Z,19.46
2018-05-12T04:48:37.261Z,19.33
2018-05-12T04:49:08.477Z,19.25
2018-05-12T04:49:39.693Z,19.16
2018-05-12T04:50:10.906Z,19.03
2018-05-12T04:50:42.178Z,18.90
2018-05-12T04:51:13.393Z,18.72
2018-05-12T04:51:44.592Z,18.60
2018-05-12T04:52:15.806Z,18.46
2018-05-12T04:52:47.041Z,18.34
2018-05-12T04:53:18.297Z,18.16
2018-05-12T04:53:49.501Z,18.03
2018-05-12T04:54:20.804Z,17.97
2018-05-12T04:54:51.965Z,17.91
2018-05-12T04:55:23.245Z,17.90
2018-05-12T04:55:54.457Z,17.75
2018-05-12T04:56:25.670Z,17.72
2018-05-12T04:56:56.897Z,17.74
2018-05-12T04:57:28.172Z,17.87
2018-05-12T04:57:59.401Z,18.06
2018-05-12T04:58:30.618Z,18.26
2018-05-12T04:59:01.829Z,18.59
2018-05-12T04:59:33.085Z,19.00
2018-05-12T05:00:04.298Z,19.28
2018-05-12T05:00:35.528Z,19.49
2018-05-12T05:01:06.754Z,19.56
2018-05-12T05:01:37.966Z,19.71
2018-05-12T05:02:09.191Z,19.83
2018-05-12T05:02:40.401Z,19.93
2018-05-12T05:03:11.629Z,20.13
2018-05-12T05:03:42.841Z,20.23
2018-05-12T05:04:14.049Z,20.18
2018-05-12T05:04:45.282Z,20.03
2018-05-12T05:05:16.484Z,19.75
2018-05-12T05:05:47.692Z,19.62
2018-05-12T05:06:18.902Z,19.36
2018-05-12T05:06:50.155Z,19.23
2018-05-12T05:07:21.368Z,19.30
2018-05-12T05:07:52.583Z,19.59
2018-05-12T05:08:23.793Z,19.93
2018-05-12T05:08:55.005Z,20.28
2018-05-12T05:09:26.240Z,20.70
2018-05-12T05:09:57.453Z,21.16
2018-05-12T05:10:28.675Z,21.57
2018-05-12T05:10:59.899Z,22.03
2018-05-12T05:11:31.140Z,22.47
2018-05-12T05:12:02.400Z,22.88
2018-05-12T05:12:33.661Z,23.17
2018-05-12T05:13:04.894Z,23.46
2018-05-12T05:13:36.148Z,23.75
2018-05-12T05:14:07.373Z,24.00
2018-05-12T05:14:38.616Z,24.20
2018-05-12T05:15:09.835Z,24.34
2018-05-12T05:15:41.052Z,24.37
2018-05-12T05:16:12.315Z,24.61
2018-05-12T05:16:43.510Z,24.74
2018-05-12T05:17:14.772Z,24.84
2018-05-12T05:17:45.992Z,24.78
2018-05-12T05:18:17.282Z,24.60
2018-05-12T05:18:48.565Z,24.39
2018-05-12T05:19:19.785Z,24.09
2018-05-12T05:19:51.053Z,23.72
2018-05-12T05:20:22.268Z,23.35
2018-05-12T05:20:53.621Z,23.03
2018-05-12T05:21:24.837Z,22.70
2018-05-12T05:21:56.057Z,22.32
2018-05-12T05:22:27.312Z,21.90
2018-05-12T05:22:58.534Z,21.64
2018-05-12T05:23:29.826Z,21.46
2018-05-12T05:24:01.028Z,21.31
2018-05-12T05:24:32.283Z,21.30
2018-05-12T05:25:03.506Z,21.35
2018-05-12T05:25:34.713Z,21.40
2018-05-12T05:26:05.921Z,21.51
2018-05-12T05:26:37.115Z,21.63
2018-05-12T05:27:08.327Z,21.84
2018-05-12T05:27:39.558Z,22.05
2018-05-12T05:28:10.796Z,22.30
2018-05-12T05:28:42.009Z,22.50
2018-05-12T05:29:13.221Z,22.71
2018-05-12T05:29:44.437Z,22.96
2018-05-12T05:30:15.642Z,23.19
2018-05-12T05:30:46.895Z,23.34
2018-05-12T05:31:18.117Z,23.52
2018-05-12T05:31:49.321Z,23.63
2018-05-12T05:32:20.541Z,23.73
2018-05-12T05:32:51.758Z,23.82
2018-05-12T05:33:22.960Z,23.89
2018-05-12T05:33:54.206Z,23.98
2018-05-12T05:34:25.429Z,24.03
2018-05-12T05:34:56.645Z,24.07
2018-05-12T05:35:27.849Z,24.10
2018-05-12T05:35:59.090Z,24.11
2018-05-12T05:36:30.298Z,24.01
2018-05-12T05:37:01.510Z,23.94
2018-05-12T05:37:32.712Z,23.92
2018-05-12T05:38:04.520Z,23.97
2018-05-12T05:38:35.766Z,24.08
2018-05-12T05:39:06.984Z,24.08
2018-05-12T05:39:38.847Z,24.08
2018-05-12T05:40:10.086Z,24.10
2018-05-12T05:40:41.339Z,24.05
2018-05-12T05:41:12.644Z,23.85
2018-05-12T05:41:43.871Z,23.70
2018-05-12T05:42:15.103Z,23.55
2018-05-12T05:42:46.368Z,23.40
2018-05-12T05:43:17.677Z,23.23
2018-05-12T05:43:48.899Z,23.19
2018-05-12T05:44:20.106Z,23.16
2018-05-12T05:44:51.310Z,23.04
2018-05-12T05:45:22.511Z,22.98
2018-05-12T05:45:53.753Z,22.87
2018-05-12T05:46:24.967Z,22.83
2018-05-12T05:46:56.174Z,22.80
2018-05-12T05:47:27.385Z,22.74
2018-05-12T05:47:58.638Z,22.68
2018-05-12T05:48:29.887Z,22.51
2018-05-12T05:49:02.349Z,22.52
2018-05-12T05:49:33.621Z,22.45
2018-05-12T05:50:04.838Z,22.35
2018-05-12T05:50:36.065Z,22.32
2018-05-12T05:51:07.285Z,22.29
2018-05-12T05:51:38.507Z,22.21
2018-05-12T05:52:09.716Z,22.15
2018-05-12T05:52:40.929Z,22.08
2018-05-12T05:53:12.157Z,22.00
2018-05-12T05:53:43.412Z,21.96
2018-05-12T05:54:14.633Z,21.80
2018-05-12T05:54:45.845Z,21.69
2018-05-12T05:55:17.062Z,21.44
2018-05-12T05:55:48.294Z,21.33
2018-05-12T05:56:19.523Z,21.16
2018-05-12T05:56:50.754Z,21.09
2018-05-12T05:57:21.971Z,21.03
2018-05-12T05:57:53.169Z,20.96
2018-05-12T05:58:24.414Z,20.89
2018-05-12T05:58:55.624Z,20.85
2018-05-12T05:59:26.839Z,20.79
2018-05-12T05:59:58.082Z,20.74
2018-05-12T06:00:29.321Z,20.64
2018-05-12T06:01:00.551Z,20.53
2018-05-12T06:01:31.776Z,20.43
2018-05-12T06:02:02.993Z,20.16
2018-05-12T06:02:34.201Z,20.08
2018-05-12T06:03:05.426Z,19.96
2018-05-12T06:03:36.679Z,19.98
2018-05-12T06:04:07.931Z,20.00
2018-05-12T06:04:39.150Z,20.00
2018-05-12T06:05:10.350Z,19.98
2018-05-12T06:05:41.588Z,19.99
2018-05-12T06:06:12.801Z,20.03
2018-05-12T06:06:44.070Z,20.07
2018-05-12T06:07:15.270Z,20.14
2018-05-12T06:07:46.542Z,20.14
2018-05-12T06:08:17.755Z,20.23
2018-05-12T06:08:49.024Z,20.28
2018-05-12T06:09:20.225Z,20.30
2018-05-12T06:09:51.444Z,20.36
2018-05-12T06:10:22.667Z,20.30
2018-05-12T06:10:53.949Z,20.32
2018-05-12T06:11:25.168Z,20.36
2018-05-12T06:11:56.381Z,20.38
2018-05-12T06:12:27.593Z,20.47
2018-05-12T06:12:58.803Z,20.56
2018-05-12T06:13:30.029Z,20.63
2018-05-12T06:14:01.242Z,20.67
2018-05-12T06:14:32.463Z,20.70
2018-05-12T06:15:03.689Z,20.80
2018-05-12T06:15:34.926Z,20.84
2018-05-12T06:16:06.358Z,20.84
2018-05-12T06:16:37.636Z,20.86
2018-05-12T06:17:08.881Z,20.91
2018-05-12T06:17:40.237Z,20.92
2018-05-12T06:18:11.560Z,20.97
2018-05-12T06:18:42.749Z,21.04
2018-05-12T06:19:14.820Z,21.10
2018-05-12T06:19:46.072Z,21.19
2018-05-12T06:20:17.302Z,21.10
2018-05-12T06:20:49.415Z,21.07
2018-05-12T06:21:20.663Z,21.10
2018-05-12T06:21:51.878Z,21.06
2018-05-12T06:22:23.109Z,21.01
2018-05-12T06:22:54.358Z,20.97
2018-05-12T06:23:25.576Z,20.99
2018-05-12T06:23:56.786Z,20.97
2018-05-12T06:24:28.009Z,20.96
2018-05-12T06:24:59.230Z,21.00
2018-05-12T06:25:30.558Z,21.05
2018-05-12T06:26:01.819Z,21.14
2018-05-12T06:26:33.063Z,21.23
2018-05-12T06:27:04.308Z,21.32
2018-05-12T06:27:35.533Z,21.37
2018-05-12T06:28:06.762Z,21.38
2018-05-12T06:28:37.981Z,21.09
2018-05-12T06:29:09.205Z,21.37
2018-05-12T06:29:40.444Z,21.37
2018-05-12T06:30:11.669Z,21.44
2018-05-12T06:30:42.911Z,21.46
2018-05-12T06:31:14.191Z,21.42
2018-05-12T06:31:45.454Z,21.37
2018-05-12T06:32:16.682Z,21.35
2018-05-12T06:32:47.893Z,21.32
2018-05-12T06:33:19.193Z,21.37
2018-05-12T06:33:50.407Z,21.42
2018-05-12T06:34:21.660Z,21.41
2018-05-12T06:34:52.869Z,21.35
2018-05-12T06:35:24.101Z,21.35
2018-05-12T06:35:55.417Z,21.37
2018-05-12T06:36:26.637Z,21.41
2018-05-12T06:36:57.860Z,21.39
2018-05-12T06:37:29.076Z,21.40
2018-05-12T06:38:00.289Z,21.45
2018-05-12T06:38:31.545Z,21.53
2018-05-12T06:39:02.816Z,21.61
2018-05-12T06:39:34.065Z,21.66
2018-05-12T06:40:05.539Z,21.67
2018-05-12T06:40:36.757Z,21.71
2018-05-12T06:41:07.981Z,21.81
2018-05-12T06:41:39.257Z,21.90
2018-05-12T06:42:11.353Z,21.99